createdAt,value
2023-05-05T00:02:25.482Z,75.53
2023-05-05T00:04:53.052Z,74.59
2023-05-05T00:07:19.671Z,74.56
2023-05-05T00:09:46.214Z,74.09
2023-05-05T00:12:12.812Z,73.78
2023-05-05T00:14:39.445Z,74.21
2023-05-05T00:17:06.088Z,73.99
2023-05-05T00:19:32.738Z,73.99
2023-05-05T00:21:59.364Z,74.47
2023-05-05T00:24:25.964Z,75.09
2023-05-05T00:26:52.539Z,75.24
2023-05-05T00:29:19.150Z,75.55
2023-05-05T00:31:46.020Z,76.59
2023-05-05T00:34:12.572Z,76.36
2023-05-05T00:36:39.149Z,77.22
2023-05-05T00:39:05.772Z,79.22
2023-05-05T00:41:32.342Z,79.24
2023-05-05T00:43:58.921Z,79.37
2023-05-05T00:46:28.060Z,81.38
2023-05-05T00:48:55.355Z,82.04
2023-05-05T00:51:22.274Z,83.04
2023-05-05T00:53:49.181Z,83.14
2023-05-05T00:56:17.385Z,84.15
2023-05-05T00:58:44.339Z,84.04
2023-05-05T01:01:12.091Z,84.73
2023-05-05T01:03:39.946Z,85.92
2023-05-05T01:06:06.855Z,86.44
2023-05-05T01:09:02.126Z,86.15
2023-05-05T01:11:48.770Z,86.02
2023-05-05T01:14:33.999Z,86.29
2023-05-05T01:17:08.031Z,87.67
2023-05-05T01:19:53.112Z,87.72
2023-05-05T01:22:24.864Z,87.17
2023-05-05T01:25:11.435Z,88.97
2023-05-05T01:27:59.542Z,88.86
2023-05-05T01:30:50.034Z,88.74
2023-05-05T01:33:23.244Z,89.37
2023-05-05T01:35:57.770Z,90.08
2023-05-05T01:38:35.584Z,89.36
2023-05-05T01:41:19.420Z,89.97
2023-05-05T01:43:50.255Z,90.05
2023-05-05T01:46:19.284Z,91.67
2023-05-05T01:48:48.304Z,91.42
2023-05-05T01:51:17.917Z,92.01
2023-05-05T01:53:47.185Z,91.73
2023-05-05T01:56:16.428Z,91.43
2023-05-05T01:58:45.162Z,91.93
2023-05-05T02:01:13.508Z,92.08
2023-05-05T02:03:42.090Z,93.25
2023-05-05T02:06:11.214Z,93.08
2023-05-05T02:08:39.442Z,93.05
2023-05-05T02:11:09.384Z,93.50
2023-05-05T02:13:37.741Z,93.40
2023-05-05T02:16:05.435Z,93.50
2023-05-05T02:18:35.854Z,93.95
2023-05-05T02:21:03.586Z,94.71
2023-05-05T02:23:31.234Z,94.29
2023-05-05T02:26:04.920Z,93.94
2023-05-05T02:28:48.875Z,95.29
2023-05-05T02:31:17.822Z,95.19
2023-05-05T02:33:47.511Z,95.51
2023-05-05T02:36:21.944Z,95.53
2023-05-05T02:38:54.158Z,95.35
2023-05-05T02:41:22.413Z,95.65
2023-05-05T02:43:51.120Z,95.70
2023-05-05T02:46:18.139Z,95.70
2023-05-05T02:48:44.935Z,95.75
2023-05-05T02:51:11.597Z,95.91
2023-05-05T02:53:38.861Z,96.36
2023-05-05T02:56:26.664Z,95.82
2023-05-05T02:59:16.328Z,96.19
2023-05-05T03:01:51.292Z,97.10
2023-05-05T03:04:35.092Z,96.55
2023-05-05T03:07:10.960Z,96.57
2023-05-05T03:09:41.774Z,96.81
2023-05-05T03:12:16.999Z,96.95
2023-05-05T03:14:46.037Z,97.45
2023-05-05T03:17:14.660Z,97.64
2023-05-05T03:19:43.231Z,97.05
2023-05-05T03:22:10.198Z,96.91
2023-05-05T03:24:36.816Z,96.91
2023-05-05T03:27:03.463Z,97.14
2023-05-05T03:29:30.278Z,97.07
2023-05-05T03:31:56.972Z,97.36
2023-05-05T03:34:23.568Z,97.56
2023-05-05T03:36:50.122Z,97.89
2023-05-05T03:39:17.099Z,98.26
2023-05-05T03:41:43.620Z,98.14
2023-05-05T03:44:10.528Z,98.82
2023-05-05T03:46:37.115Z,98.96
2023-05-05T03:49:03.662Z,99.52
2023-05-05T03:51:30.225Z,99.57
2023-05-05T03:53:56.943Z,99.65
2023-05-05T03:56:23.465Z,99.89
2023-05-05T03:58:50.038Z,100.00
2023-05-05T04:01:16.757Z,100.00
2023-05-05T04:03:43.559Z,100.00
2023-05-05T04:06:10.290Z,100.00
2023-05-05T04:08:36.893Z,100.00
2023-05-05T04:11:03.598Z,100.00
2023-05-05T04:13:30.283Z,100.00
2023-05-05T04:15:56.959Z,100.00
2023-05-05T04:18:23.559Z,100.00
2023-05-05T04:20:50.124Z,100.00
2023-05-05T04:23:16.704Z,100.00
2023-05-05T04:25:43.262Z,100.00
2023-05-05T04:28:09.801Z,100.00
2023-05-05T04:30:36.347Z,100.00
2023-05-05T04:33:03.016Z,100.00
2023-05-05T04:35:29.636Z,100.00
2023-05-05T04:37:56.247Z,100.00
2023-05-05T04:40:22.774Z,99.91
2023-05-05T04:42:49.496Z,99.76
2023-05-05T04:45:16.206Z,100.00
2023-05-05T04:47:42.897Z,99.95
2023-05-05T04:50:10.341Z,99.20
2023-05-05T04:52:37.681Z,98.85
2023-05-05T04:55:04.716Z,99.15
2023-05-05T04:57:31.579Z,98.52
2023-05-05T04:59:59.574Z,98.53
2023-05-05T05:02:27.115Z,98.56
2023-05-05T05:04:53.732Z,97.84
2023-05-05T05:07:20.371Z,97.19
2023-05-05T05:09:46.979Z,96.96
2023-05-05T05:12:13.548Z,96.58
2023-05-05T05:14:40.451Z,95.77
2023-05-05T05:17:07.025Z,95.97
2023-05-05T05:19:33.872Z,96.13
2023-05-05T05:22:00.682Z,95.98
2023-05-05T05:24:27.300Z,95.59
2023-05-05T05:26:53.894Z,95.37
2023-05-05T05:29:20.572Z,95.70
2023-05-05T05:31:47.207Z,95.76
2023-05-05T05:34:13.896Z,95.75
2023-05-05T05:36:40.555Z,95.25
2023-05-05T05:39:07.104Z,94.93
2023-05-05T05:41:33.750Z,96.17
2023-05-05T05:44:00.418Z,96.19
2023-05-05T05:46:26.968Z,94.65
2023-05-05T05:48:53.558Z,92.37
2023-05-05T05:51:20.526Z,91.02
2023-05-05T05:53:47.083Z,88.17
2023-05-05T05:56:13.643Z,83.21
2023-05-05T05:58:40.729Z,82.77
2023-05-05T06:01:07.295Z,78.72
2023-05-05T06:03:34.229Z,76.92
2023-05-05T06:06:00.989Z,75.92
2023-05-05T06:08:27.759Z,75.53
2023-05-05T06:10:54.392Z,75.69
2023-05-05T06:13:21.565Z,73.92
2023-05-05T06:15:48.194Z,74.63
2023-05-05T06:18:14.879Z,73.79
2023-05-05T06:20:41.712Z,74.00
2023-05-05T06:23:08.271Z,70.90
2023-05-05T06:25:34.877Z,71.68
2023-05-05T06:28:02.117Z,71.06
2023-05-05T06:30:28.819Z,69.31
2023-05-05T06:32:55.818Z,69.62
2023-05-05T06:35:22.555Z,68.95
2023-05-05T06:37:49.139Z,68.39
2023-05-05T06:40:15.875Z,67.19
2023-05-05T06:42:42.920Z,69.47
2023-05-05T06:45:09.780Z,69.17
2023-05-05T06:47:36.567Z,68.09
2023-05-05T06:50:03.872Z,65.41
2023-05-05T06:52:30.471Z,66.56
2023-05-05T06:54:57.017Z,65.48
2023-05-05T06:57:23.754Z,65.77
2023-05-05T06:59:50.315Z,65.27
2023-05-05T07:02:16.915Z,65.63
2023-05-05T07:04:44.413Z,62.45
2023-05-05T07:07:11.016Z,60.17
2023-05-05T07:09:37.610Z,60.90
2023-05-05T07:12:04.465Z,59.71
2023-05-05T07:14:31.309Z,60.62
2023-05-05T07:16:58.154Z,62.38
2023-05-05T07:19:24.993Z,62.40
2023-05-05T07:21:52.100Z,61.87
2023-05-05T07:24:18.748Z,62.09
2023-05-05T07:26:45.424Z,61.14
2023-05-05T07:29:12.054Z,62.30
2023-05-05T07:31:38.685Z,61.63
2023-05-05T07:34:05.337Z,60.47
2023-05-05T07:36:32.929Z,60.87
2023-05-05T07:39:00.437Z,58.86
2023-05-05T07:41:27.052Z,59.09
2023-05-05T07:43:53.655Z,59.04
2023-05-05T07:46:20.246Z,59.95
2023-05-05T07:48:47.188Z,57.63
2023-05-05T07:51:13.766Z,56.00
2023-05-05T07:53:41.240Z,57.60
2023-05-05T07:56:08.837Z,60.23
2023-05-05T07:58:35.486Z,59.39
2023-05-05T08:01:02.822Z,59.69
2023-05-05T08:03:29.662Z,56.48
2023-05-05T08:05:56.547Z,55.62
2023-05-05T08:08:24.937Z,57.95
2023-05-05T08:10:53.036Z,55.91
2023-05-05T08:13:19.971Z,56.44
2023-05-05T08:15:46.648Z,55.68
2023-05-05T08:18:14.096Z,55.30
2023-05-05T08:20:40.717Z,55.35
2023-05-05T08:23:07.282Z,52.75
2023-05-05T08:25:33.881Z,52.79
2023-05-05T08:28:01.728Z,53.49
2023-05-05T08:30:28.500Z,52.76
2023-05-05T08:32:55.369Z,55.56
2023-05-05T08:35:22.204Z,53.41
2023-05-05T08:37:48.796Z,53.95
2023-05-05T08:40:15.437Z,55.50
2023-05-05T08:42:42.653Z,56.40
2023-05-05T08:45:10.427Z,55.34
2023-05-05T08:47:38.380Z,50.89
2023-05-05T08:50:08.079Z,50.65
2023-05-05T08:52:45.823Z,51.96
2023-05-05T08:55:21.715Z,50.46
2023-05-05T08:57:58.456Z,50.14
2023-05-05T09:00:27.082Z,51.06
2023-05-05T09:02:56.960Z,50.88
2023-05-05T09:05:24.280Z,50.37
2023-05-05T09:07:51.642Z,53.23
2023-05-05T09:10:19.257Z,48.14
2023-05-05T09:12:46.211Z,48.90
2023-05-05T09:15:15.190Z,48.38
2023-05-05T09:17:42.431Z,48.12
2023-05-05T09:20:11.187Z,47.87
2023-05-05T09:22:46.279Z,47.43
2023-05-05T09:25:15.547Z,49.03
2023-05-05T09:27:45.831Z,48.32
2023-05-05T09:30:23.585Z,48.77
2023-05-05T09:32:51.959Z,51.12
2023-05-05T09:35:20.139Z,51.67
2023-05-05T09:37:47.557Z,50.34
2023-05-05T09:40:15.712Z,46.98
2023-05-05T09:42:42.742Z,44.94
2023-05-05T09:45:18.140Z,44.40
2023-05-05T09:47:46.414Z,44.91
2023-05-05T09:50:18.677Z,43.84
2023-05-05T09:52:56.117Z,46.44
2023-05-05T09:55:23.897Z,44.41
2023-05-05T09:57:50.804Z,42.79
2023-05-05T10:00:18.112Z,47.62
2023-05-05T10:02:45.432Z,43.58
2023-05-05T10:05:13.494Z,44.34
2023-05-05T10:07:42.013Z,43.47
2023-05-05T10:10:11.906Z,41.70
2023-05-05T10:12:39.717Z,42.24
2023-05-05T10:15:08.553Z,41.32
2023-05-05T10:18:05.367Z,43.39
2023-05-05T10:20:34.460Z,43.46
2023-05-05T10:23:05.598Z,41.18
2023-05-05T10:25:39.157Z,40.13
2023-05-05T10:28:06.775Z,39.88
2023-05-05T10:30:41.588Z,40.40
2023-05-05T10:35:53.911Z,39.01
2023-05-05T10:38:21.590Z,39.18
2023-05-05T10:40:48.883Z,40.44
2023-05-05T10:43:15.763Z,38.28
2023-05-05T10:45:43.256Z,40.05
2023-05-05T10:48:18.851Z,41.71
2023-05-05T10:50:52.865Z,36.80
2023-05-05T10:53:26.080Z,36.46
2023-05-05T10:56:04.392Z,37.97
2023-05-05T10:58:58.208Z,37.73
2023-05-05T11:01:36.470Z,36.93
2023-05-05T11:04:23.625Z,36.60
2023-05-05T11:07:14.722Z,37.27
2023-05-05T11:09:59.209Z,37.74
2023-05-05T11:12:25.826Z,36.91
2023-05-05T11:15:26.375Z,35.52
2023-05-05T11:17:54.347Z,36.30
2023-05-05T11:20:45.449Z,36.15
2023-05-05T11:23:13.367Z,36.35
2023-05-05T11:25:45.340Z,36.19
2023-05-05T11:28:31.531Z,35.15
2023-05-05T11:31:00.892Z,38.38
2023-05-05T11:33:37.731Z,36.94
2023-05-05T11:36:09.443Z,35.22
2023-05-05T11:38:39.090Z,35.33
2023-05-05T11:41:17.340Z,32.80
2023-05-05T11:43:44.041Z,35.28
2023-05-05T11:46:14.777Z,30.71
2023-05-05T11:48:48.532Z,32.78
2023-05-05T11:51:18.941Z,30.75
2023-05-05T11:53:47.472Z,31.06
2023-05-05T11:56:20.466Z,30.07
2023-05-05T11:59:04.808Z,34.50
2023-05-05T12:01:31.410Z,32.16
2023-05-05T12:03:58.390Z,32.51
2023-05-05T12:06:26.022Z,29.99
2023-05-05T12:08:52.625Z,29.19
2023-05-05T12:11:19.295Z,31.70
2023-05-05T12:13:46.444Z,33.13
2023-05-05T12:16:17.196Z,30.31
2023-05-05T12:18:43.787Z,30.19
2023-05-05T12:21:28.308Z,30.16
2023-05-05T12:23:54.899Z,29.72
2023-05-05T12:26:31.878Z,29.06
2023-05-05T12:28:59.746Z,28.14
2023-05-05T12:31:41.382Z,29.69
2023-05-05T12:34:11.941Z,29.04
2023-05-05T12:36:39.549Z,29.38
2023-05-05T12:39:06.397Z,29.46
2023-05-05T12:41:33.685Z,31.67
2023-05-05T12:44:03.229Z,30.82
2023-05-05T12:46:31.121Z,29.54
2023-05-05T12:49:05.927Z,26.95
2023-05-05T12:51:34.342Z,26.79
2023-05-05T12:54:05.456Z,26.99
2023-05-05T12:56:36.237Z,28.40
2023-05-05T12:59:10.330Z,27.36
2023-05-05T13:01:49.208Z,27.78
2023-05-05T13:04:16.833Z,27.45
2023-05-05T13:06:44.995Z,27.12
2023-05-05T13:09:36.531Z,28.68
2023-05-05T13:12:04.438Z,28.18
2023-05-05T13:14:34.913Z,28.41
2023-05-05T13:17:01.538Z,29.44
2023-05-05T13:19:28.354Z,27.64
2023-05-05T13:21:56.517Z,27.93
2023-05-05T13:24:31.622Z,28.99
2023-05-05T13:27:05.225Z,27.36
2023-05-05T13:29:32.496Z,28.34
2023-05-05T13:31:59.279Z,27.63
2023-05-05T13:34:26.184Z,28.10
2023-05-05T13:36:53.028Z,28.96
2023-05-05T13:39:19.953Z,27.89
2023-05-05T13:41:46.594Z,28.71
2023-05-05T13:44:14.050Z,25.68
2023-05-05T13:46:41.953Z,26.02
2023-05-05T13:49:08.789Z,28.49
2023-05-05T13:51:35.368Z,26.53
2023-05-05T13:54:02.382Z,27.24
2023-05-05T13:56:29.059Z,26.57
2023-05-05T13:58:55.675Z,25.44
2023-05-05T14:01:22.570Z,26.90
2023-05-05T14:03:49.205Z,25.14
2023-05-05T14:06:15.742Z,26.34
2023-05-05T14:08:42.691Z,25.77
2023-05-05T14:11:09.214Z,24.37
2023-05-05T14:13:35.792Z,23.13
2023-05-05T14:16:02.821Z,24.10
2023-05-05T14:18:29.719Z,23.64
2023-05-05T14:20:56.261Z,23.92
2023-05-05T14:23:22.870Z,23.36
2023-05-05T14:25:49.491Z,22.52
2023-05-05T14:28:16.212Z,23.67
2023-05-05T14:30:43.033Z,24.55
2023-05-05T14:33:09.575Z,26.27
2023-05-05T14:35:36.183Z,24.50
2023-05-05T14:38:02.760Z,25.35
2023-05-05T14:40:30.323Z,23.90
2023-05-05T14:42:57.783Z,24.89
2023-05-05T14:45:24.438Z,25.09
2023-05-05T14:47:51.034Z,26.37
2023-05-05T14:50:17.683Z,26.53
2023-05-05T14:52:44.610Z,26.16
2023-05-05T14:55:11.907Z,26.63
2023-05-05T14:57:38.877Z,26.09
2023-05-05T15:00:07.138Z,24.37
2023-05-05T15:02:33.941Z,22.49
2023-05-05T15:05:00.650Z,22.43
2023-05-05T15:07:28.621Z,21.96
2023-05-05T15:09:58.478Z,21.70
2023-05-05T15:12:26.032Z,20.00
2023-05-05T15:14:52.864Z,19.17
2023-05-05T15:17:19.566Z,20.51
2023-05-05T15:19:46.196Z,19.80
2023-05-05T15:22:12.784Z,18.77
2023-05-05T15:24:39.403Z,19.38
2023-05-05T15:27:06.194Z,17.86
2023-05-05T15:29:32.774Z,20.25
2023-05-05T15:31:59.352Z,20.31
2023-05-05T15:34:26.216Z,19.38
2023-05-05T15:36:52.819Z,19.84
2023-05-05T15:39:19.535Z,19.68
2023-05-05T15:41:46.206Z,19.74
2023-05-05T15:44:12.822Z,18.84
2023-05-05T15:46:39.844Z,19.03
2023-05-05T15:49:06.564Z,19.67
2023-05-05T15:51:33.241Z,20.23
2023-05-05T15:54:00.361Z,20.30
2023-05-05T15:56:27.589Z,21.45
2023-05-05T15:58:54.551Z,22.32
2023-05-05T16:01:21.188Z,21.59
2023-05-05T16:03:47.793Z,22.35
2023-05-05T16:06:14.402Z,22.79
2023-05-05T16:08:41.198Z,22.81
2023-05-05T16:11:07.807Z,23.43
2023-05-05T16:13:34.513Z,24.08
2023-05-05T16:16:01.439Z,23.16
2023-05-05T16:18:28.019Z,22.66
2023-05-05T16:20:54.580Z,22.53
2023-05-05T16:23:21.261Z,22.60
2023-05-05T16:25:47.832Z,23.04
2023-05-05T16:28:14.430Z,24.17
2023-05-05T16:30:42.847Z,25.99
2023-05-05T16:33:09.841Z,26.95
2023-05-05T16:35:36.686Z,26.60
2023-05-05T16:38:03.560Z,27.37
2023-05-05T16:40:30.302Z,28.28
2023-05-05T16:42:56.946Z,32.04
2023-05-05T16:45:24.371Z,32.80
2023-05-05T16:47:51.197Z,33.45
2023-05-05T16:50:17.938Z,31.71
2023-05-05T16:52:44.585Z,31.55
2023-05-05T16:55:11.551Z,36.02
2023-05-05T16:57:38.502Z,37.06
2023-05-05T17:00:10.289Z,40.43
2023-05-05T17:02:36.904Z,40.09
2023-05-05T17:05:03.786Z,41.96
2023-05-05T17:07:30.397Z,38.36
2023-05-05T17:09:56.964Z,37.96
2023-05-05T17:12:23.888Z,41.46
2023-05-05T17:14:51.332Z,41.89
2023-05-05T17:17:18.274Z,43.46
2023-05-05T17:19:44.908Z,42.77
2023-05-05T17:22:11.544Z,45.51
2023-05-05T17:24:38.123Z,45.55
2023-05-05T17:27:04.724Z,46.83
2023-05-05T17:29:31.372Z,47.04
2023-05-05T17:31:58.091Z,45.18
2023-05-05T17:34:24.732Z,45.07
2023-05-05T17:36:51.324Z,45.06
2023-05-05T17:39:17.982Z,46.74
2023-05-05T17:41:44.578Z,47.21
2023-05-05T17:44:11.118Z,48.31
2023-05-05T17:46:38.374Z,47.20
2023-05-05T17:49:05.148Z,50.05
2023-05-05T17:51:32.346Z,52.89
2023-05-05T17:53:58.880Z,54.50
2023-05-05T17:56:25.809Z,56.52
2023-05-05T17:58:53.051Z,56.84
2023-05-05T18:01:23.659Z,58.78
2023-05-05T18:03:50.607Z,59.42
2023-05-05T18:06:17.396Z,59.22
2023-05-05T18:08:44.792Z,58.16
2023-05-05T18:11:11.527Z,59.97
2023-05-05T18:13:38.881Z,61.01
2023-05-05T18:16:05.788Z,62.49
2023-05-05T18:18:32.707Z,62.59
2023-05-05T18:20:59.319Z,63.96
2023-05-05T18:23:26.134Z,63.91
2023-05-05T18:25:52.704Z,63.77
2023-05-05T18:28:19.317Z,64.14
2023-05-05T18:30:45.954Z,64.62
2023-05-05T18:33:12.566Z,65.10
2023-05-05T18:35:39.104Z,66.28
2023-05-05T18:38:05.860Z,66.55
2023-05-05T18:40:32.674Z,67.87
2023-05-05T18:42:59.298Z,67.61
2023-05-05T18:45:25.916Z,68.30
2023-05-05T18:47:52.551Z,67.92
2023-05-05T18:50:19.118Z,67.79
2023-05-05T18:52:45.710Z,69.20
2023-05-05T18:55:12.579Z,69.25
2023-05-05T18:57:39.248Z,69.36
2023-05-05T19:00:06.479Z,69.38
2023-05-05T19:02:33.140Z,70.02
2023-05-05T19:04:59.783Z,70.05
2023-05-05T19:07:34.871Z,70.17
2023-05-05T19:10:06.425Z,70.29
2023-05-05T19:12:33.052Z,70.76
2023-05-05T19:14:59.616Z,71.52
2023-05-05T19:17:26.221Z,71.91
2023-05-05T19:19:52.806Z,72.17
2023-05-05T19:22:20.657Z,73.80
2023-05-05T19:24:47.283Z,73.25
2023-05-05T19:27:16.398Z,74.31
2023-05-05T19:29:44.038Z,74.51
2023-05-05T19:32:10.843Z,74.60
2023-05-05T19:34:37.618Z,75.77
2023-05-05T19:37:04.222Z,75.71
2023-05-05T19:39:31.341Z,75.13
2023-05-05T19:41:57.937Z,74.94
2023-05-05T19:44:24.536Z,75.36
2023-05-05T19:46:52.767Z,74.36
2023-05-05T19:49:19.406Z,74.97
2023-05-05T19:51:47.666Z,75.29
2023-05-05T19:54:14.228Z,75.74
2023-05-05T19:56:40.837Z,75.17
2023-05-05T19:59:07.559Z,76.37
2023-05-05T20:01:35.401Z,77.14
2023-05-05T20:04:03.675Z,77.91
2023-05-05T20:06:30.489Z,79.01
2023-05-05T20:08:57.046Z,79.12
2023-05-05T20:11:25.818Z,80.43
2023-05-05T20:13:53.001Z,80.58
2023-05-05T20:16:20.201Z,80.32
2023-05-05T20:18:46.867Z,80.58
2023-05-05T20:21:14.095Z,81.17
2023-05-05T20:23:42.768Z,80.55
2023-05-05T20:26:09.537Z,81.29
2023-05-05T20:28:36.934Z,81.02
2023-05-05T20:31:03.627Z,80.63
2023-05-05T20:33:30.370Z,80.54
2023-05-05T20:35:57.088Z,80.29
2023-05-05T20:38:23.857Z,80.37
2023-05-05T20:40:50.981Z,80.17
2023-05-05T20:43:18.171Z,80.38
2023-05-05T20:45:45.053Z,80.31
2023-05-05T20:48:11.678Z,80.15
2023-05-05T20:50:41.704Z,80.35
2023-05-05T20:53:09.386Z,81.07
2023-05-05T20:55:35.977Z,81.74
2023-05-05T20:58:05.519Z,82.77
2023-05-05T21:00:32.249Z,82.48
2023-05-05T21:02:59.213Z,81.62
2023-05-05T21:05:26.069Z,82.80
2023-05-05T21:07:54.111Z,83.04
2023-05-05T21:10:20.850Z,82.37
2023-05-05T21:12:47.470Z,83.28
2023-05-05T21:15:14.214Z,83.20
2023-05-05T21:17:42.858Z,82.17
2023-05-05T21:20:10.262Z,83.45
2023-05-05T21:22:37.373Z,83.13
2023-05-05T21:25:15.954Z,82.44
2023-05-05T21:27:42.634Z,82.37
2023-05-05T21:30:11.218Z,83.37
2023-05-05T21:32:39.263Z,83.36
2023-05-05T21:35:07.666Z,83.32
2023-05-05T21:37:36.549Z,84.56
2023-05-05T21:40:03.279Z,84.48
2023-05-05T21:42:30.923Z,84.78
2023-05-05T21:44:57.466Z,84.75
2023-05-05T21:47:24.280Z,85.50
2023-05-05T21:49:50.900Z,85.77
2023-05-05T21:52:17.485Z,86.66
2023-05-05T21:54:45.305Z,86.98
2023-05-05T21:57:11.887Z,87.34
2023-05-05T21:59:38.491Z,87.19
2023-05-05T22:02:05.127Z,87.60
2023-05-05T22:04:31.649Z,86.75
2023-05-05T22:06:58.374Z,86.68
2023-05-05T22:09:24.952Z,87.54
2023-05-05T22:11:51.590Z,88.33
2023-05-05T22:14:18.163Z,88.25
2023-05-05T22:16:44.899Z,88.88
2023-05-05T22:19:11.541Z,88.78
2023-05-05T22:21:38.102Z,88.61
2023-05-05T22:24:05.330Z,89.09
2023-05-05T22:26:31.909Z,89.86
2023-05-05T22:28:58.531Z,90.29
2023-05-05T22:31:25.198Z,91.27
2023-05-05T22:33:51.882Z,91.32
2023-05-05T22:36:18.946Z,92.33
2023-05-05T22:38:45.660Z,93.07
2023-05-05T22:41:12.505Z,92.30
2023-05-05T22:43:39.165Z,92.96
2023-05-05T22:46:05.917Z,92.81
2023-05-05T22:48:32.538Z,93.16
2023-05-05T22:50:59.868Z,93.57
2023-05-05T22:53:26.579Z,92.89
2023-05-05T22:55:53.200Z,94.01
2023-05-05T22:58:20.990Z,94.12
2023-05-05T23:00:49.026Z,94.51
2023-05-05T23:03:15.614Z,95.18
2023-05-05T23:05:42.136Z,96.32
2023-05-05T23:08:08.777Z,96.61
2023-05-05T23:10:35.417Z,97.03
2023-05-05T23:13:02.222Z,97.47
2023-05-05T23:15:28.841Z,98.27
2023-05-05T23:17:55.658Z,97.33
2023-05-05T23:20:22.418Z,97.41
2023-05-05T23:22:49.995Z,96.04
2023-05-05T23:25:16.615Z,94.99
2023-05-05T23:27:43.898Z,95.07
2023-05-05T23:30:11.050Z,95.22
2023-05-05T23:32:37.969Z,94.90
2023-05-05T23:35:05.065Z,95.10
2023-05-05T23:37:31.644Z,94.48
2023-05-05T23:39:58.264Z,94.72
2023-05-05T23:42:24.861Z,94.61
2023-05-05T23:44:51.473Z,94.23
2023-05-05T23:47:18.252Z,93.77
2023-05-05T23:49:44.841Z,93.22
2023-05-05T23:52:11.475Z,93.66
2023-05-05T23:54:38.043Z,93.74
2023-05-05T23:57:04.764Z,94.14
2023-05-05T23:59:31.391Z,94.23
